Time;durP1;ratioP1;P1;durP2;ratioP2;P2;SDS_P1;SDS_P2;PMS_P1;PMS_P2;Temp;Humidity;BMP_temperature;BMP_pressure;BME280_temperature;BME280_humidity;BME280_pressure;Samples;Min_cycle;Max_cycle;Signal;HPM_P1;HPM_P2
2022/07/05 00:00:54;;;;;;;;;;;;;;;;;;5059185;28;20255;-21
2022/07/05 00:03:20;;;;;;;;;;;;;;;;;;5058469;28;19932;-23
2022/07/05 00:05:46;;;;;;;;;;;;;;;;;;5058711;28;19913;-26
2022/07/05 00:08:12;;;;;;;;;;;;;;;;;;5058719;28;20003;-21
2022/07/05 00:10:38;;;;;;;;;;;;;;;;;;5059038;28;19913;-20
2022/07/05 00:13:04;;;;;;;;;;;;;;;;;;5058668;28;20414;-23
2022/07/05 00:15:30;;;;;;;;;;;;;;;;;;5058556;28;19917;-23
2022/07/05 00:17:56;;;;;;;;;;;;;;;;;;5059456;28;19967;-23
2022/07/05 00:20:22;;;;;;;;;;;;;;;;;;5058446;28;19923;-21
2022/07/05 00:22:48;;;;;;;;;;;;;;;;;;5058377;28;19999;-21
2022/07/05 00:25:14;;;;;;;;;;;;;;;;;;5058927;28;19944;-23
2022/07/05 00:27:40;;;;;;;;;;;;;;;;;;5058309;28;19913;-21
2022/07/05 00:30:06;;;;;;;;;;;;;;;;;;5057361;28;20012;-21
2022/07/05 00:32:32;;;;;;;;;;;;;;;;;;5058348;28;20344;-21
2022/07/05 00:34:58;;;;;;;;;;;;;;;;;;5058480;28;19917;-23
2022/07/05 00:37:24;;;;;;;;;;;;;;;;;;5058020;28;19979;-21
2022/07/05 00:39:50;;;;;;;;;;;;;;;;;;5058089;28;19913;-23
2022/07/05 00:42:16;;;;;;;;;;;;;;;;;;5058252;28;19913;-23
2022/07/05 00:44:42;;;;;;;;;;;;;;;;;;5058101;28;20350;-22
2022/07/05 00:47:08;;;;;;;;;;;;;;;;;;5058095;28;19915;-21
2022/07/05 00:49:34;;;;;;;;;;;;;;;;;;5058009;28;19913;-21
2022/07/05 00:52:00;;;;;;;;;;;;;;;;;;5056990;28;19913;-24
2022/07/05 00:54:26;;;;;;;;;;;;;;;;;;5058004;28;19912;-21
2022/07/05 00:56:52;;;;;;;;;;;;;;;;;;5057844;28;20232;-20
2022/07/05 00:59:18;;;;;;;;;;;;;;;;;;5058393;28;19919;-21
2022/07/05 01:01:44;;;;;;;;;;;;;;;;;;5057720;28;19963;-23
2022/07/05 01:04:10;;;;;;;;;;;;;;;;;;5057166;28;19924;-21
2022/07/05 01:06:36;;;;;;;;;;;;;;;;;;5057701;28;20012;-21
2022/07/05 01:09:02;;;;;;;;;;;;;;;;;;5056678;28;19971;-21
2022/07/05 01:11:28;;;;;;;;;;;;;;;;;;5057916;28;19909;-23
2022/07/05 01:13:54;;;;;;;;;;;;;;;;;;5057510;28;19977;-20
2022/07/05 01:16:20;;;;;;;;;;;;;;;;;;5057443;28;20000;-21
2022/07/05 01:18:46;;;;;;;;;;;;;;;;;;5057497;28;19913;-21
2022/07/05 01:21:12;;;;;;;;;;;;;;;;;;5057384;28;19919;-20
2022/07/05 01:23:38;;;;;;;;;;;;;;;;;;5057355;28;20041;-23
2022/07/05 01:26:04;;;;;;;;;;;;;;;;;;5057179;28;19913;-26
2022/07/05 01:28:30;;;;;;;;;;;;;;;;;;5057851;28;19917;-21
2022/07/05 01:30:56;;;;;;;;;;;;;;;;;;5057506;28;19920;-23
2022/07/05 01:33:22;;;;;;;;;;;;;;;;;;5057121;28;20331;-21
2022/07/05 01:35:48;;;;;;;;;;;;;;;;;;5057100;28;19964;-21
2022/07/05 01:38:16;;;;;;;;;;;;;;;;;;5057103;28;19971;-21
2022/07/05 01:40:42;;;;;;;;;;;;;;;;;;5056994;28;19912;-22
2022/07/05 01:43:08;;;;;;;;;;;;;;;;;;5056979;28;19920;-22
2022/07/05 01:45:41;;;;;;;;;;;;;;;;;;5056972;28;19913;-21
2022/07/05 01:48:07;;;;;;;;;;;;;;;;;;5056943;28;19913;-21
2022/07/05 01:50:33;;;;;;;;;;;;;;;;;;5057344;28;19919;-21
2022/07/05 01:52:59;;;;;;;;;;;;;;;;;;5056984;28;19912;-22
2022/07/05 01:55:25;;;;;;;;;;;;;;;;;;5056664;28;19917;-20
2022/07/05 01:57:51;;;;;;;;;;;;;;;;;;5056735;28;19914;-30
2022/07/05 02:00:17;;;;;;;;;;;;;;;;;;5056716;28;19921;-23
2022/07/05 02:02:43;;;;;;;;;;;;;;;;;;5056350;28;19920;-21
2022/07/05 02:05:09;;;;;;;;;;;;;;;;;;5056414;28;19916;-27
2022/07/05 02:07:35;;;;;;;;;;;;;;;;;;5056454;28;19967;-20
2022/07/05 02:10:01;;;;;;;;;;;;;;;;;;5056390;28;19913;-25
2022/07/05 02:12:27;;;;;;;;;;;;;;;;;;5056305;28;19908;-20
2022/07/05 02:14:53;;;;;;;;;;;;;;;;;;5056209;28;19912;-21
2022/07/05 02:17:19;;;;;;;;;;;;;;;;;;5055425;28;20359;-21
2022/07/05 02:19:45;;;;;;;;;;;;;;;;;;5056463;28;19913;-21
2022/07/05 02:22:12;;;;;;;;;;;;;;;;;;5056111;28;19909;-24
2022/07/05 02:24:38;;;;;;;;;;;;;;;;;;5056363;28;19924;-21
2022/07/05 02:27:04;;;;;;;;;;;;;;;;;;5056360;28;20291;-21
2022/07/05 02:29:30;;;;;;;;;;;;;;;;;;5055981;28;19924;-20
2022/07/05 02:31:56;;;;;;;;;;;;;;;;;;5055966;28;19920;-22
2022/07/05 02:34:22;;;;;;;;;;;;;;;;;;5056394;28;19908;-21
2022/07/05 02:36:48;;;;;;;;;;;;;;;;;;5055937;28;19971;-21
2022/07/05 02:39:14;;;;;;;;;;;;;;;;;;5055962;28;19916;-21
2022/07/05 02:41:40;;;;;;;;;;;;;;;;;;5055910;28;20263;-21
2022/07/05 02:44:06;;;;;;;;;;;;;;;;;;5055784;28;19959;-22
2022/07/05 02:46:32;;;;;;;;;;;;;;;;;;5056095;28;19909;-21
2022/07/05 02:48:58;;;;;;;;;;;;;;;;;;5055761;28;20256;-23
2022/07/05 02:51:24;;;;;;;;;;;;;;;;;;5055781;28;19909;-21
2022/07/05 02:53:50;;;;;;;;;;;;;;;;;;5055730;28;19942;-22
2022/07/05 02:56:16;;;;;;;;;;;;;;;;;;5055545;28;20256;-21
2022/07/05 02:58:42;;;;;;;;;;;;;;;;;;5054722;28;20003;-21
2022/07/05 03:01:08;;;;;;;;;;;;;;;;;;5055815;28;19944;-22
2022/07/05 03:03:34;;;;;;;;;;;;;;;;;;5055353;28;19920;-21
2022/07/05 03:06:00;;;;;;;;;;;;;;;;;;5055345;28;19913;-22
2022/07/05 03:08:26;;;;;;;;;;;;;;;;;;5055507;28;19908;-22
2022/07/05 03:10:52;;;;;;;;;;;;;;;;;;5055660;28;20251;-21
2022/07/05 03:13:18;;;;;;;;;;;;;;;;;;5055362;28;19909;-21
2022/07/05 03:15:44;;;;;;;;;;;;;;;;;;5055531;28;20271;-25
2022/07/05 03:18:10;;;;;;;;;;;;;;;;;;5055356;28;19908;-23
2022/07/05 03:20:36;;;;;;;;;;;;;;;;;;5055275;28;19912;-21
2022/07/05 03:23:02;;;;;;;;;;;;;;;;;;5055236;28;20367;-21
2022/07/05 03:25:28;;;;;;;;;;;;;;;;;;5055210;28;19912;-21
2022/07/05 03:27:54;;;;;;;;;;;;;;;;;;5055120;28;19920;-21
2022/07/05 03:30:20;;;;;;;;;;;;;;;;;;5055421;28;19912;-21
2022/07/05 03:32:46;;;;;;;;;;;;;;;;;;5055386;28;19948;-21
2022/07/05 03:35:12;;;;;;;;;;;;;;;;;;5055022;28;19924;-22
2022/07/05 03:37:38;;;;;;;;;;;;;;;;;;5055096;28;20244;-21
2022/07/05 03:40:04;;;;;;;;;;;;;;;;;;5055032;28;19920;-21
2022/07/05 03:42:30;;;;;;;;;;;;;;;;;;5054024;28;19909;-21
2022/07/05 03:44:56;;;;;;;;;;;;;;;;;;5053986;28;19935;-21
2022/07/05 03:47:22;;;;;;;;;;;;;;;;;;5054994;28;19916;-22
2022/07/05 03:49:48;;;;;;;;;;;;;;;;;;5055451;28;19913;-23
2022/07/05 03:52:13;;;;;;;;;;;;;;;;;;5054823;28;19924;-22
2022/07/05 03:54:39;;;;;;;;;;;;;;;;;;5055280;28;19913;-20
2022/07/05 03:57:05;;;;;;;;;;;;;;;;;;5055235;28;19920;-23
2022/07/05 03:59:31;;;;;;;;;;;;;;;;;;5054992;28;20258;-25
2022/07/05 04:01:57;;;;;;;;;;;;;;;;;;5054589;28;19919;-26
2022/07/05 04:04:23;;;;;;;;;;;;;;;;;;5053509;28;19931;-22
2022/07/05 04:06:49;;;;;;;;;;;;;;;;;;5054699;28;19913;-23
2022/07/05 04:09:15;;;;;;;;;;;;;;;;;;5054427;28;19912;-21
2022/07/05 04:11:41;;;;;;;;;;;;;;;;;;5054265;28;20229;-21
2022/07/05 04:14:09;;;;;;;;;;;;;;;;;;5054248;28;20348;-26
2022/07/05 04:16:35;;;;;;;;;;;;;;;;;;5054431;28;20250;-22
2022/07/05 04:19:00;;;;;;;;;;;;;;;;;;5054266;28;19916;-21
2022/07/05 04:21:26;;;;;;;;;;;;;;;;;;5054818;28;20316;-21
2022/07/05 04:23:52;;;;;;;;;;;;;;;;;;5054744;28;20289;-22
2022/07/05 04:26:18;;;;;;;;;;;;;;;;;;5054672;28;19913;-21
2022/07/05 04:28:44;;;;;;;;;;;;;;;;;;5052983;28;19920;-21
2022/07/05 04:31:10;;;;;;;;;;;;;;;;;;5053283;28;19955;-21
2022/07/05 04:33:36;;;;;;;;;;;;;;;;;;5054218;28;19912;-21
2022/07/05 04:36:02;;;;;;;;;;;;;;;;;;5053361;28;20019;-21
2022/07/05 04:38:29;;;;;;;;;;;;;;;;;;5054425;28;19970;-22
2022/07/05 04:40:55;;;;;;;;;;;;;;;;;;5057685;28;19947;-22
2022/07/05 04:43:21;;;;;;;;;;;;;;;;;;5057977;28;19912;-25
2022/07/05 04:45:47;;;;;;;;;;;;;;;;;;5057678;28;19913;-23
2022/07/05 04:48:13;;;;;;;;;;;;;;;;;;5057798;28;20228;-22
2022/07/05 04:50:39;;;;;;;;;;;;;;;;;;5057759;28;19913;-21
2022/07/05 04:53:05;;;;;;;;;;;;;;;;;;5057742;28;20304;-22
2022/07/05 04:55:31;;;;;;;;;;;;;;;;;;5058134;28;19962;-21
2022/07/05 04:57:57;;;;;;;;;;;;;;;;;;5057673;28;19913;-21
2022/07/05 05:00:23;;;;;;;;;;;;;;;;;;5057513;28;19909;-24
2022/07/05 05:02:49;;;;;;;;;;;;;;;;;;5057309;28;19944;-23
2022/07/05 05:05:15;;;;;;;;;;;;;;;;;;5057572;28;19966;-21
2022/07/05 05:07:41;;;;;;;;;;;;;;;;;;5057573;28;20385;-23
2022/07/05 05:10:07;;;;;;;;;;;;;;;;;;5056396;28;19924;-21
2022/07/05 05:12:33;;;;;;;;;;;;;;;;;;5057622;28;20031;-24
2022/07/05 05:14:59;;;;;;;;;;;;;;;;;;5057529;28;19912;-21
2022/07/05 05:17:25;;;;;;;;;;;;;;;;;;5057383;28;20232;-22
2022/07/05 05:19:51;;;;;;;;;;;;;;;;;;5057824;28;19917;-22
2022/07/05 05:22:17;;;;;;;;;;;;;;;;;;5057193;28;19913;-24
2022/07/05 05:24:43;;;;;;;;;;;;;;;;;;5057161;28;19913;-22
2022/07/05 05:27:09;;;;;;;;;;;;;;;;;;5057140;28;19919;-23
2022/07/05 05:29:35;;;;;;;;;;;;;;;;;;5057054;28;20007;-22
2022/07/05 05:32:01;;;;;;;;;;;;;;;;;;5057207;28;19951;-22
2022/07/05 05:34:27;;;;;;;;;;;;;;;;;;5055882;28;19912;-24
2022/07/05 05:36:54;;;;;;;;;;;;;;;;;;5056877;28;19913;-22
2022/07/05 05:39:20;;;;;;;;;;;;;;;;;;5056002;28;19913;-23
2022/07/05 05:41:46;;;;;;;;;;;;;;;;;;5056791;28;19909;-22
2022/07/05 05:44:12;;;;;;;;;;;;;;;;;;5056744;28;20374;-22
2022/07/05 05:46:37;;;;;;;;;;;;;;;;;;5057111;28;19909;-29
2022/07/05 05:49:04;;;;;;;;;;;;;;;;;;5057135;28;19908;-25
2022/07/05 05:51:30;;;;;;;;;;;;;;;;;;5055418;28;19966;-25
2022/07/05 05:53:56;;;;;;;;;;;;;;;;;;5056612;28;20241;-22
2022/07/05 05:56:22;;;;;;;;;;;;;;;;;;5056464;28;19924;-22
2022/07/05 05:58:48;;;;;;;;;;;;;;;;;;5056904;28;19919;-22
2022/07/05 06:01:14;;;;;;;;;;;;;;;;;;5056244;28;19912;-25
2022/07/05 06:03:40;;;;;;;;;;;;;;;;;;5054823;28;19924;-24
2022/07/05 06:06:06;;;;;;;;;;;;;;;;;;5056254;28;20012;-23
2022/07/05 06:08:32;;;;;;;;;;;;;;;;;;5057060;28;19951;-22
2022/07/05 06:10:59;;;;;;;;;;;;;;;;;;5056297;28;19924;-26
2022/07/05 06:13:27;;;;;;;;;;;;;;;;;;5056264;28;19948;-24
2022/07/05 06:15:53;;;;;;;;;;;;;;;;;;5056774;28;19927;-21
2022/07/05 06:18:20;;;;;;;;;;;;;;;;;;5056392;28;19935;-26
2022/07/05 06:20:46;;;;;;;;;;;;;;;;;;5056250;28;19912;-22
2022/07/05 06:23:12;;;;;;;;;;;;;;;;;;5056105;28;20251;-22
2022/07/05 06:25:38;;;;;;;;;;;;;;;;;;5056230;28;20254;-23
2022/07/05 06:28:04;;;;;;;;;;;;;;;;;;5056647;28;19931;-24
2022/07/05 06:30:30;;;;;;;;;;;;;;;;;;5055891;28;19923;-23
2022/07/05 06:32:56;;;;;;;;;;;;;;;;;;5054939;28;19908;-22
2022/07/05 06:35:22;;;;;;;;;;;;;;;;;;5056068;28;19966;-24
2022/07/05 06:37:48;;;;;;;;;;;;;;;;;;5054901;28;20310;-21
2022/07/05 06:40:14;;;;;;;;;;;;;;;;;;5055914;28;20099;-22
2022/07/05 06:42:40;;;;;;;;;;;;;;;;;;5054809;28;19967;-22
2022/07/05 06:45:06;;;;;;;;;;;;;;;;;;5055972;28;19932;-22
2022/07/05 06:47:32;;;;;;;;;;;;;;;;;;5056234;28;19923;-22
2022/07/05 06:49:59;;;;;;;;;;;;;;;;;;5055879;28;19909;-23
2022/07/05 06:52:25;;;;;;;;;;;;;;;;;;5055465;28;19923;-22
2022/07/05 06:54:51;;;;;;;;;;;;;;;;;;5055670;28;20229;-24
2022/07/05 06:57:17;;;;;;;;;;;;;;;;;;5055383;28;19916;-22
2022/07/05 06:59:43;;;;;;;;;;;;;;;;;;5054637;28;19939;-23
2022/07/05 07:02:09;;;;;;;;;;;;;;;;;;5054663;28;19920;-22
2022/07/05 07:04:35;;;;;;;;;;;;;;;;;;5055793;28;19920;-22
2022/07/05 07:07:01;;;;;;;;;;;;;;;;;;5055244;28;20255;-26
2022/07/05 07:09:27;;;;;;;;;;;;;;;;;;5054960;28;19913;-22
2022/07/05 07:11:53;;;;;;;;;;;;;;;;;;5055011;28;19909;-22
2022/07/05 07:14:19;;;;;;;;;;;;;;;;;;5055096;28;20039;-22
2022/07/05 07:16:45;;;;;;;;;;;;;;;;;;5055006;28;19916;-26
2022/07/05 07:19:11;;;;;;;;;;;;;;;;;;5055061;28;20019;-24
2022/07/05 07:21:37;;;;;;;;;;;;;;;;;;5055281;28;20255;-21
2022/07/05 07:24:03;;;;;;;;;;;;;;;;;;5054891;28;20367;-22
2022/07/05 07:26:29;;;;;;;;;;;;;;;;;;5054845;28;19913;-21
2022/07/05 07:28:55;;;;;;;;;;;;;;;;;;5054708;28;19935;-26
2022/07/05 07:31:21;;;;;;;;;;;;;;;;;;5053756;28;19909;-22
2022/07/05 07:33:47;;;;;;;;;;;;;;;;;;5055022;28;19955;-23
2022/07/05 07:36:13;;;;;;;;;;;;;;;;;;5055236;28;19963;-25
2022/07/05 07:38:39;;;;;;;;;;;;;;;;;;5054858;28;19913;-21
2022/07/05 07:41:05;;;;;;;;;;;;;;;;;;5054865;28;20014;-24
2022/07/05 07:43:31;;;;;;;;;;;;;;;;;;5054776;28;19912;-25
2022/07/05 07:45:57;;;;;;;;;;;;;;;;;;5054844;28;19931;-22
2022/07/05 07:48:24;;;;;;;;;;;;;;;;;;5055176;28;20331;-21
2022/07/05 07:50:50;;;;;;;;;;;;;;;;;;5054971;28;19928;-25
2022/07/05 07:53:16;;;;;;;;;;;;;;;;;;5054732;28;19909;-23
2022/07/05 07:55:42;;;;;;;;;;;;;;;;;;5055061;28;20323;-22
2022/07/05 07:58:09;;;;;;;;;;;;;;;;;;5054611;28;19987;-23
2022/07/05 08:00:35;;;;;;;;;;;;;;;;;;5054830;28;20008;-22
2022/07/05 08:03:01;;;;;;;;;;;;;;;;;;5053171;28;19976;-24
2022/07/05 08:05:27;;;;;;;;;;;;;;;;;;5055072;28;19955;-22
2022/07/05 08:07:53;;;;;;;;;;;;;;;;;;5054582;28;20350;-24
2022/07/05 08:10:19;;;;;;;;;;;;;;;;;;5054508;28;20232;-22
2022/07/05 08:12:45;;;;;;;;;;;;;;;;;;5054760;28;20336;-23
2022/07/05 08:15:11;;;;;;;;;;;;;;;;;;5055928;28;19936;-24
2022/07/05 08:17:37;;;;;;;;;;;;;;;;;;5058515;28;19909;-24
2022/07/05 08:22:48;;;;;;;;;;;;;;;;;;5058420;28;19974;-30
2022/07/05 08:25:14;;;;;;;;;;;;;;;;;;5057380;28;19909;-23
2022/07/05 08:27:40;;;;;;;;;;;;;;;;;;5057919;28;19924;-23
2022/07/05 08:30:06;;;;;;;;;;;;;;;;;;5057131;28;19974;-22
2022/07/05 08:32:32;;;;;;;;;;;;;;;;;;5057578;28;19945;-25
2022/07/05 08:34:58;;;;;;;;;;;;;;;;;;5058024;28;19913;-22
2022/07/05 08:37:24;;;;;;;;;;;;;;;;;;5058114;28;19935;-22
2022/07/05 08:39:50;;;;;;;;;;;;;;;;;;5057093;28;19912;-22
2022/07/05 08:42:16;;;;;;;;;;;;;;;;;;5057950;28;19971;-23
2022/07/05 08:44:42;;;;;;;;;;;;;;;;;;5058056;28;19913;-23
2022/07/05 08:47:08;;;;;;;;;;;;;;;;;;5057915;28;20304;-22
2022/07/05 08:49:34;;;;;;;;;;;;;;;;;;5057901;28;19920;-23
2022/07/05 08:52:02;;;;;;;;;;;;;;;;;;5056733;28;19913;-22
2022/07/05 08:54:28;;;;;;;;;;;;;;;;;;5057785;28;19919;-26
2022/07/05 08:56:54;;;;;;;;;;;;;;;;;;5056715;28;19912;-22
2022/07/05 08:59:20;;;;;;;;;;;;;;;;;;5057893;28;19936;-23
2022/07/05 09:01:47;;;;;;;;;;;;;;;;;;5057538;28;20263;-25
2022/07/05 09:04:13;;;;;;;;;;;;;;;;;;5057499;28;20316;-23
2022/07/05 09:06:39;;;;;;;;;;;;;;;;;;5058241;28;20003;-22
2022/07/05 09:09:05;;;;;;;;;;;;;;;;;;5058152;28;19962;-23
2022/07/05 09:11:31;;;;;;;;;;;;;;;;;;5058136;28;20341;-23
2022/07/05 09:13:57;;;;;;;;;;;;;;;;;;5057465;28;19913;-23
2022/07/05 09:16:23;;;;;;;;;;;;;;;;;;5057577;28;20370;-25
2022/07/05 09:18:49;;;;;;;;;;;;;;;;;;5056430;28;20315;-26
2022/07/05 09:21:15;;;;;;;;;;;;;;;;;;5057818;28;19909;-24
2022/07/05 09:23:42;;;;;;;;;;;;;;;;;;5057452;28;20383;-24
2022/07/05 09:26:08;;;;;;;;;;;;;;;;;;5057252;28;19995;-28
2022/07/05 09:28:34;;;;;;;;;;;;;;;;;;5057101;28;19913;-23
2022/07/05 09:31:00;;;;;;;;;;;;;;;;;;5057054;28;19919;-24
2022/07/05 09:33:27;;;;;;;;;;;;;;;;;;5056991;28;19944;-25
2022/07/05 09:35:59;;;;;;;;;;;;;;;;;;5057040;28;20405;-22
2022/07/05 09:38:26;;;;;;;;;;;;;;;;;;5056136;28;19913;-22
2022/07/05 09:40:52;;;;;;;;;;;;;;;;;;5056807;28;19952;-28
2022/07/05 09:43:18;;;;;;;;;;;;;;;;;;5056643;28;19916;-23
2022/07/05 09:45:44;;;;;;;;;;;;;;;;;;5056645;28;19920;-21
2022/07/05 09:48:11;;;;;;;;;;;;;;;;;;5057257;28;19962;-23
2022/07/05 09:50:37;;;;;;;;;;;;;;;;;;5056610;28;20271;-28
2022/07/05 09:53:03;;;;;;;;;;;;;;;;;;5056387;28;19952;-23
2022/07/05 09:55:29;;;;;;;;;;;;;;;;;;5056475;28;19916;-25
2022/07/05 09:57:55;;;;;;;;;;;;;;;;;;5057155;28;19908;-23
2022/07/05 10:00:21;;;;;;;;;;;;;;;;;;5057074;28;19944;-22
2022/07/05 10:02:48;;;;;;;;;;;;;;;;;;5055332;28;19921;-23
2022/07/05 10:05:15;;;;;;;;;;;;;;;;;;5056395;28;20011;-29
2022/07/05 10:07:41;;;;;;;;;;;;;;;;;;5056990;28;19971;-22
2022/07/05 10:10:07;;;;;;;;;;;;;;;;;;5055441;28;19974;-22
2022/07/05 10:12:33;;;;;;;;;;;;;;;;;;5056090;28;19913;-23
2022/07/05 10:15:00;;;;;;;;;;;;;;;;;;5056387;28;19909;-26
2022/07/05 10:17:26;;;;;;;;;;;;;;;;;;5056107;28;19944;-23
2022/07/05 10:19:52;;;;;;;;;;;;;;;;;;5056308;28;20309;-21
2022/07/05 10:22:18;;;;;;;;;;;;;;;;;;5056386;28;19909;-26
2022/07/05 10:24:44;;;;;;;;;;;;;;;;;;5056337;28;20008;-21
2022/07/05 10:27:10;;;;;;;;;;;;;;;;;;5056130;28;19919;-22
2022/07/05 10:29:36;;;;;;;;;;;;;;;;;;5056633;28;19952;-21
2022/07/05 10:32:02;;;;;;;;;;;;;;;;;;5055803;28;20010;-26
2022/07/05 10:34:28;;;;;;;;;;;;;;;;;;5055832;28;19920;-21
2022/07/05 10:36:54;;;;;;;;;;;;;;;;;;5054989;28;19913;-21
2022/07/05 10:39:23;;;;;;;;;;;;;;;;;;5055840;28;19917;-23
2022/07/05 10:41:49;;;;;;;;;;;;;;;;;;5055659;28;19919;-24
2022/07/05 10:44:15;;;;;;;;;;;;;;;;;;5056024;28;20332;-23
2022/07/05 10:46:43;;;;;;;;;;;;;;;;;;5055884;28;19959;-21
2022/07/05 10:49:09;;;;;;;;;;;;;;;;;;5054451;28;19919;-23
2022/07/05 10:51:34;;;;;;;;;;;;;;;;;;5055595;28;19908;-23
2022/07/05 10:54:00;;;;;;;;;;;;;;;;;;5055597;28;20409;-24
2022/07/05 10:56:26;;;;;;;;;;;;;;;;;;5055331;28;19916;-21
2022/07/05 10:58:52;;;;;;;;;;;;;;;;;;5055941;28;19909;-22
2022/07/05 11:01:18;;;;;;;;;;;;;;;;;;5055599;28;19923;-22
2022/07/05 11:03:45;;;;;;;;;;;;;;;;;;5055294;28;20366;-23
2022/07/05 11:06:11;;;;;;;;;;;;;;;;;;5055979;28;19963;-24
2022/07/05 11:08:37;;;;;;;;;;;;;;;;;;5055977;28;19912;-23
2022/07/05 11:11:03;;;;;;;;;;;;;;;;;;5055194;28;20343;-24
2022/07/05 11:13:29;;;;;;;;;;;;;;;;;;5055253;28;19944;-22
2022/07/05 11:15:55;;;;;;;;;;;;;;;;;;5055683;28;19960;-22
2022/07/05 11:18:21;;;;;;;;;;;;;;;;;;5054219;28;19913;-22
2022/07/05 11:20:47;;;;;;;;;;;;;;;;;;5055177;28;19913;-23
2022/07/05 11:23:13;;;;;;;;;;;;;;;;;;5054932;28;19909;-24
2022/07/05 11:25:39;;;;;;;;;;;;;;;;;;5055519;28;19912;-23
2022/07/05 11:28:05;;;;;;;;;;;;;;;;;;5055093;28;20295;-21
2022/07/05 11:30:31;;;;;;;;;;;;;;;;;;5055470;28;19913;-23
2022/07/05 11:32:57;;;;;;;;;;;;;;;;;;5054920;28;19916;-24
2022/07/05 11:35:23;;;;;;;;;;;;;;;;;;5054875;28;19916;-24
2022/07/05 11:37:49;;;;;;;;;;;;;;;;;;5054848;28;19919;-22
2022/07/05 11:40:15;;;;;;;;;;;;;;;;;;5054852;28;20021;-26
2022/07/05 11:42:42;;;;;;;;;;;;;;;;;;5055046;28;19909;-24
2022/07/05 11:45:08;;;;;;;;;;;;;;;;;;5054890;28;19908;-22
2022/07/05 11:47:34;;;;;;;;;;;;;;;;;;5054741;28;19913;-21
2022/07/05 11:50:00;;;;;;;;;;;;;;;;;;5058654;28;19913;-21
2022/07/05 11:52:26;;;;;;;;;;;;;;;;;;5057936;28;19908;-22
2022/07/05 11:54:52;;;;;;;;;;;;;;;;;;5059260;28;19923;-23
2022/07/05 11:57:18;;;;;;;;;;;;;;;;;;5058813;28;20000;-21
2022/07/05 11:59:44;;;;;;;;;;;;;;;;;;5057778;28;19912;-22
2022/07/05 12:02:10;;;;;;;;;;;;;;;;;;5058409;28;19944;-22
2022/07/05 12:04:36;;;;;;;;;;;;;;;;;;5058961;28;19917;-22
2022/07/05 12:07:02;;;;;;;;;;;;;;;;;;5059518;28;19913;-21
2022/07/05 12:12:42;;;;;;;;;;;;;;;;;;5058369;28;20054;-21
2022/07/05 12:14:59;;;;;;;;;;;;;;;;;;5058423;28;20252;-24
2022/07/05 12:17:25;;;;;;;;;;;;;;;;;;5058850;28;19913;-23
2022/07/05 12:19:52;;;;;;;;;;;;;;;;;;5058372;28;19952;-23
2022/07/05 12:22:18;;;;;;;;;;;;;;;;;;5058342;28;19919;-24
2022/07/05 12:24:44;;;;;;;;;;;;;;;;;;5058243;28;20000;-21
2022/07/05 12:27:10;;;;;;;;;;;;;;;;;;5058374;28;19909;-21
2022/07/05 12:29:36;;;;;;;;;;;;;;;;;;5058136;28;20236;-26
2022/07/05 12:32:02;;;;;;;;;;;;;;;;;;5058347;28;19913;-21
2022/07/05 12:34:29;;;;;;;;;;;;;;;;;;5058084;28;19988;-22
2022/07/05 12:36:55;;;;;;;;;;;;;;;;;;5058287;28;20020;-21
2022/07/05 12:39:21;;;;;;;;;;;;;;;;;;5057942;28;20391;-26
2022/07/05 12:41:47;;;;;;;;;;;;;;;;;;5058088;28;20363;-22
2022/07/05 12:44:13;;;;;;;;;;;;;;;;;;5057808;28;19920;-24
2022/07/05 12:46:39;;;;;;;;;;;;;;;;;;5057703;28;19909;-23
2022/07/05 12:49:05;;;;;;;;;;;;;;;;;;5057764;28;19922;-24
2022/07/05 12:51:31;;;;;;;;;;;;;;;;;;5057795;28;19924;-21
2022/07/05 12:59:26;;;;;;;;;;;;;;;;;;5057183;28;19966;-25
2022/07/05 13:01:52;;;;;;;;;;;;;;;;;;5056946;28;19909;-25
2022/07/05 13:04:18;;;;;;;;;;;;;;;;;;5057288;28;19921;-23
2022/07/05 13:06:44;;;;;;;;;;;;;;;;;;5057437;28;19920;-23
2022/07/05 13:09:10;;;;;;;;;;;;;;;;;;5057690;28;20067;-25
2022/07/05 13:11:36;;;;;;;;;;;;;;;;;;5057349;28;20336;-22
2022/07/05 13:14:02;;;;;;;;;;;;;;;;;;5057428;28;19917;-21
2022/07/05 13:16:28;;;;;;;;;;;;;;;;;;5057602;28;19924;-22
2022/07/05 13:18:54;;;;;;;;;;;;;;;;;;5057351;28;19912;-21
2022/07/05 13:21:20;;;;;;;;;;;;;;;;;;5057455;28;19923;-23
2022/07/05 13:23:46;;;;;;;;;;;;;;;;;;5057204;28;19970;-22
2022/07/05 13:26:12;;;;;;;;;;;;;;;;;;5057257;28;19909;-22
2022/07/05 13:28:38;;;;;;;;;;;;;;;;;;5057727;28;19919;-22
2022/07/05 13:31:06;;;;;;;;;;;;;;;;;;5056873;28;20411;-22
2022/07/05 13:33:32;;;;;;;;;;;;;;;;;;5056920;28;19916;-22
2022/07/05 13:35:58;;;;;;;;;;;;;;;;;;5057546;28;19916;-24
2022/07/05 13:38:23;;;;;;;;;;;;;;;;;;5056779;28;19970;-22
2022/07/05 13:40:49;;;;;;;;;;;;;;;;;;5056882;28;19999;-22
2022/07/05 13:43:16;;;;;;;;;;;;;;;;;;5056810;28;19917;-23
2022/07/05 13:45:42;;;;;;;;;;;;;;;;;;5056910;28;19909;-22
2022/07/05 13:48:08;;;;;;;;;;;;;;;;;;5056891;28;20234;-22
2022/07/05 13:50:35;;;;;;;;;;;;;;;;;;5056532;28;19909;-23
2022/07/05 13:53:01;;;;;;;;;;;;;;;;;;5057025;28;19971;-22
2022/07/05 13:55:27;;;;;;;;;;;;;;;;;;5056547;28;19920;-23
2022/07/05 13:57:53;;;;;;;;;;;;;;;;;;5056790;28;19958;-22
2022/07/05 14:00:19;;;;;;;;;;;;;;;;;;5055612;28;19913;-22
2022/07/05 14:02:45;;;;;;;;;;;;;;;;;;5056189;28;20012;-22
2022/07/05 14:05:16;;;;;;;;;;;;;;;;;;5055624;28;20468;-23
2022/07/05 14:07:42;;;;;;;;;;;;;;;;;;5056642;28;19909;-22
2022/07/05 14:10:08;;;;;;;;;;;;;;;;;;5056561;28;19909;-30
2022/07/05 14:12:34;;;;;;;;;;;;;;;;;;5054883;28;19992;-27
2022/07/05 14:15:00;;;;;;;;;;;;;;;;;;5055952;28;20138;-23
2022/07/05 14:17:26;;;;;;;;;;;;;;;;;;5055863;28;19917;-25
2022/07/05 14:19:52;;;;;;;;;;;;;;;;;;5056093;28;20326;-23
2022/07/05 14:22:18;;;;;;;;;;;;;;;;;;5056020;28;20274;-27
2022/07/05 14:24:44;;;;;;;;;;;;;;;;;;5054996;28;19913;-23
2022/07/05 14:27:10;;;;;;;;;;;;;;;;;;5055944;28;19909;-23
2022/07/05 14:29:36;;;;;;;;;;;;;;;;;;5055777;28;20397;-23
2022/07/05 14:32:02;;;;;;;;;;;;;;;;;;5055518;28;19932;-25
2022/07/05 14:34:28;;;;;;;;;;;;;;;;;;5056028;28;19912;-23
2022/07/05 14:36:54;;;;;;;;;;;;;;;;;;5055477;28;19920;-28
2022/07/05 14:39:20;;;;;;;;;;;;;;;;;;5055440;28;19913;-24
2022/07/05 14:41:46;;;;;;;;;;;;;;;;;;5055446;28;19962;-23
2022/07/05 14:44:12;;;;;;;;;;;;;;;;;;5055539;28;19919;-23
2022/07/05 14:46:38;;;;;;;;;;;;;;;;;;5055554;28;20331;-22
2022/07/05 14:49:04;;;;;;;;;;;;;;;;;;5055461;28;19912;-23
2022/07/05 14:51:30;;;;;;;;;;;;;;;;;;5054303;28;19996;-26
2022/07/05 14:53:56;;;;;;;;;;;;;;;;;;5055404;28;19952;-22
2022/07/05 14:56:22;;;;;;;;;;;;;;;;;;5055264;28;20320;-22
2022/07/05 14:58:49;;;;;;;;;;;;;;;;;;5055319;28;19913;-22
2022/07/05 15:01:15;;;;;;;;;;;;;;;;;;5055155;28;20355;-27
2022/07/05 15:03:41;;;;;;;;;;;;;;;;;;5054853;28;19937;-24
2022/07/05 15:06:08;;;;;;;;;;;;;;;;;;5055239;28;19962;-24
2022/07/05 15:08:34;;;;;;;;;;;;;;;;;;5055250;28;19912;-27
2022/07/05 15:11:00;;;;;;;;;;;;;;;;;;5055573;28;20262;-22
2022/07/05 15:13:26;;;;;;;;;;;;;;;;;;5055237;28;19909;-23
2022/07/05 15:15:52;;;;;;;;;;;;;;;;;;5055051;28;19923;-23
2022/07/05 15:18:18;;;;;;;;;;;;;;;;;;5055152;28;19909;-26
2022/07/05 15:20:44;;;;;;;;;;;;;;;;;;5055691;28;20321;-23
2022/07/05 15:23:10;;;;;;;;;;;;;;;;;;5054658;28;19919;-22
2022/07/05 15:25:37;;;;;;;;;;;;;;;;;;5054343;28;19912;-22
2022/07/05 15:28:04;;;;;;;;;;;;;;;;;;5054980;28;19923;-22
2022/07/05 15:30:31;;;;;;;;;;;;;;;;;;5054986;28;19959;-24
2022/07/05 15:32:56;;;;;;;;;;;;;;;;;;5054819;28;19912;-22
2022/07/05 15:35:22;;;;;;;;;;;;;;;;;;5054851;28;20355;-23
2022/07/05 15:37:49;;;;;;;;;;;;;;;;;;5054803;28;19940;-24
2022/07/05 15:40:14;;;;;;;;;;;;;;;;;;5055098;28;19962;-23
2022/07/05 15:42:40;;;;;;;;;;;;;;;;;;5054881;28;19943;-23
2022/07/05 15:45:07;;;;;;;;;;;;;;;;;;5053885;28;19920;-22
2022/07/05 15:47:34;;;;;;;;;;;;;;;;;;5054881;28;19999;-22
2022/07/05 15:50:00;;;;;;;;;;;;;;;;;;5054851;28;19909;-21
2022/07/05 15:52:26;;;;;;;;;;;;;;;;;;5053868;28;19924;-22
2022/07/05 15:54:52;;;;;;;;;;;;;;;;;;5054776;28;20279;-22
2022/07/05 15:57:20;;;;;;;;;;;;;;;;;;5054911;28;19923;-22
2022/07/05 15:59:46;;;;;;;;;;;;;;;;;;5054681;28;20050;-23
2022/07/05 16:02:12;;;;;;;;;;;;;;;;;;5054399;28;19991;-22
2022/07/05 16:04:38;;;;;;;;;;;;;;;;;;5054924;28;19967;-23
2022/07/05 16:07:04;;;;;;;;;;;;;;;;;;5053762;28;20309;-24
2022/07/05 16:09:30;;;;;;;;;;;;;;;;;;5054728;28;19971;-24
2022/07/05 16:11:56;;;;;;;;;;;;;;;;;;5054593;28;19912;-23
2022/07/05 16:14:22;;;;;;;;;;;;;;;;;;5054609;28;19948;-24
2022/07/05 16:16:48;;;;;;;;;;;;;;;;;;5054495;28;19962;-22
2022/07/05 16:19:14;;;;;;;;;;;;;;;;;;5054451;28;20366;-26
2022/07/05 16:21:40;;;;;;;;;;;;;;;;;;5055020;28;19909;-26
2022/07/05 16:24:06;;;;;;;;;;;;;;;;;;5054515;28;19948;-22
2022/07/05 16:26:32;;;;;;;;;;;;;;;;;;5055254;28;20344;-27
2022/07/05 16:28:58;;;;;;;;;;;;;;;;;;5054430;28;19908;-22
2022/07/05 16:31:24;;;;;;;;;;;;;;;;;;5054366;28;19939;-24
2022/07/05 16:33:50;;;;;;;;;;;;;;;;;;5054192;28;19924;-22
2022/07/05 16:36:16;;;;;;;;;;;;;;;;;;5057046;28;19913;-23
2022/07/05 16:38:42;;;;;;;;;;;;;;;;;;5058605;28;20352;-21
2022/07/05 16:41:08;;;;;;;;;;;;;;;;;;5058069;28;19909;-23
2022/07/05 16:43:36;;;;;;;;;;;;;;;;;;5056906;28;20314;-22
2022/07/05 16:46:02;;;;;;;;;;;;;;;;;;5058247;28;20306;-22
2022/07/05 16:48:28;;;;;;;;;;;;;;;;;;5058000;28;19940;-22